Time;durP1;ratioP1;P1;durP2;ratioP2;P2;SDS_P1;SDS_P2;PMS_P1;PMS_P2;Temp;Humidity;BMP_temperature;BMP_pressure;BME280_temperature;BME280_humidity;BME280_pressure;Samples;Min_cycle;Max_cycle;Signal;HPM_P1;HPM_P2
2022/10/11 00:02:13;;;;;;;9.75;5.13;;;13.90;99.90;;;;;;5072675;28;20040;-82
2022/10/11 00:04:39;;;;;;;11.52;4.90;;;13.90;99.90;;;;;;5073059;28;20036;-83
2022/10/11 00:07:04;;;;;;;9.02;4.90;;;13.90;99.90;;;;;;5072952;28;20063;-82
2022/10/11 00:09:30;;;;;;;12.90;4.82;;;13.90;99.90;;;;;;5072744;28;20484;-82
2022/10/11 00:11:56;;;;;;;12.48;5.18;;;13.90;99.90;;;;;;5072659;28;20481;-82
2022/10/11 00:14:23;;;;;;;6.95;5.00;;;13.90;99.90;;;;;;5072191;28;20465;-82
2022/10/11 00:16:49;;;;;;;13.18;6.03;;;13.90;99.90;;;;;;5072801;28;20453;-82
2022/10/11 00:19:14;;;;;;;7.97;5.30;;;13.90;99.90;;;;;;5072376;28;20069;-81
2022/10/11 00:21:40;;;;;;;12.82;5.28;;;13.90;99.90;;;;;;5072541;28;20120;-82
2022/10/11 00:24:06;;;;;;;9.85;5.40;;;13.90;99.90;;;;;;5072623;28;20028;-81
2022/10/11 00:26:32;;;;;;;9.30;5.47;;;13.90;99.90;;;;;;5072195;28;20040;-82
2022/10/11 00:28:58;;;;;;;15.55;5.80;;;13.90;99.90;;;;;;5072614;28;20021;-81
2022/10/11 00:31:23;;;;;;;7.55;5.10;;;13.90;99.90;;;;;;5071738;28;20142;-80
2022/10/11 00:33:49;;;;;;;9.98;6.07;;;13.90;99.90;;;;;;5072706;28;20096;-81
2022/10/11 00:36:16;;;;;;;10.23;5.85;;;13.90;99.90;;;;;;5072268;28;20102;-80
2022/10/11 00:38:43;;;;;;;13.35;5.75;;;13.90;99.90;;;;;;5072521;28;20473;-82
2022/10/11 00:41:09;;;;;;;8.48;5.53;;;13.90;99.90;;;;;;5072145;28;20416;-79
2022/10/11 00:43:36;;;;;;;7.88;5.20;;;13.90;99.90;;;;;;5072068;28;20051;-81
2022/10/11 00:46:23;;;;;;;12.32;5.55;;;13.90;99.90;;;;;;5072341;28;20031;-82
2022/10/11 00:49:01;;;;;;;11.38;5.15;;;13.90;99.90;;;;;;5072531;28;20061;-82
2022/10/11 00:51:45;;;;;;;13.13;5.32;;;13.90;99.90;;;;;;5071988;28;20063;-82
2022/10/11 00:54:15;;;;;;;9.43;5.45;;;13.90;99.90;;;;;;5075049;28;20028;-82
2022/10/11 00:56:44;;;;;;;7.47;4.82;;;13.90;99.90;;;;;;5095231;28;20055;-81
2022/10/11 00:59:16;;;;;;;8.25;4.90;;;13.80;99.90;;;;;;5096412;28;20024;-82
2022/10/11 01:01:42;;;;;;;7.03;4.60;;;13.80;99.90;;;;;;5096162;28;20497;-82
2022/10/11 01:04:07;;;;;;;8.75;5.53;;;13.80;99.90;;;;;;5096720;28;20115;-82
2022/10/11 01:06:34;;;;;;;8.52;5.65;;;13.80;99.90;;;;;;5095753;28;20117;-82
2022/10/11 01:09:00;;;;;;;9.82;6.03;;;13.80;99.90;;;;;;5096527;28;20028;-82
2022/10/11 01:11:29;;;;;;;9.73;5.50;;;13.80;99.90;;;;;;5096033;28;20039;-82
2022/10/11 01:14:04;;;;;;;14.40;5.85;;;13.80;99.90;;;;;;5096372;28;20031;-82
2022/10/11 01:17:13;;;;;;;8.05;5.32;;;13.80;99.90;;;;;;5096063;28;20108;-80
2022/10/11 01:20:16;;;;;;;9.20;5.57;;;13.80;99.90;;;;;;5039628;28;20129;-81
2022/10/11 01:23:23;;;;;;;9.60;5.45;;;13.80;99.90;;;;;;5077645;28;20039;-81
2022/10/11 01:26:42;;;;;;;9.73;5.53;;;13.80;99.90;;;;;;5082428;28;20044;-80
2022/10/11 01:29:29;;;;;;;7.45;4.88;;;13.90;99.90;;;;;;4994128;28;20111;-82
2022/10/11 01:32:12;;;;;;;8.30;5.38;;;13.90;99.90;;;;;;5096224;28;20032;-81
2022/10/11 01:34:39;;;;;;;9.18;5.38;;;13.90;99.90;;;;;;5095525;28;20054;-80
2022/10/11 01:37:17;;;;;;;8.73;5.63;;;13.90;99.90;;;;;;5095912;28;20024;-81
2022/10/11 01:39:48;;;;;;;8.60;5.00;;;13.90;99.90;;;;;;5095924;28;20024;-81
2022/10/11 01:42:16;;;;;;;10.85;5.53;;;13.90;99.90;;;;;;5095498;28;20071;-81
2022/10/11 01:44:45;;;;;;;10.85;5.57;;;13.90;99.90;;;;;;5095351;28;20067;-81
2022/10/11 01:47:11;;;;;;;10.73;4.78;;;13.90;99.90;;;;;;5095443;28;20377;-81
2022/10/11 01:49:37;;;;;;;10.00;4.80;;;13.90;99.90;;;;;;5095036;28;20024;-81
2022/10/11 01:52:06;;;;;;;9.07;5.10;;;13.90;99.90;;;;;;5095640;28;20034;-81
2022/10/11 01:54:55;;;;;;;9.45;5.15;;;13.90;99.90;;;;;;5056080;28;20027;-81
2022/10/11 01:57:41;;;;;;;11.02;5.45;;;13.90;99.90;;;;;;5074182;28;20428;-81
2022/10/11 02:00:17;;;;;;;12.60;5.00;;;13.90;99.90;;;;;;5068681;28;20017;-81
2022/10/11 02:03:16;;;;;;;8.63;5.15;;;13.90;99.90;;;;;;5074574;28;20036;-80
2022/10/11 02:06:04;;;;;;;11.48;5.68;;;13.90;99.90;;;;;;5074080;28;20056;-80
2022/10/11 02:08:41;;;;;;;10.13;5.32;;;13.80;99.90;;;;;;5054676;28;20025;-82
2022/10/11 02:11:11;;;;;;;8.05;5.63;;;13.80;99.90;;;;;;5055047;28;20025;-82
2022/10/11 02:13:47;;;;;;;11.17;4.97;;;13.80;99.90;;;;;;5054498;28;20032;-82
2022/10/11 02:16:18;;;;;;;10.75;4.57;;;13.80;99.90;;;;;;5054969;28;20021;-82
2022/10/11 02:18:49;;;;;;;;;;;13.80;99.90;;;;;;5054893;28;20025;-81
2022/10/11 02:21:21;;;;;;;7.05;4.93;;;13.80;99.90;;;;;;5054892;28;19962;-81
2022/10/11 02:23:55;;;;;;;8.07;5.55;;;13.70;99.90;;;;;;5055212;28;20426;-82
2022/10/11 02:26:23;;;;;;;10.30;4.93;;;13.70;99.90;;;;;;5066315;28;20033;-81
2022/10/11 02:28:55;;;;;;;9.40;5.00;;;13.70;99.90;;;;;;5070393;28;20037;-80
2022/10/11 02:31:21;;;;;;;8.85;5.38;;;13.60;99.90;;;;;;5074076;28;20052;-81
2022/10/11 02:33:59;;;;;;;8.98;5.25;;;13.60;99.90;;;;;;5074587;28;20483;-81
2022/10/11 02:36:33;;;;;;;9.95;5.47;;;13.60;99.90;;;;;;5066633;28;20033;-80
2022/10/11 02:39:05;;;;;;;7.47;5.10;;;13.70;99.90;;;;;;5073100;28;20013;-81
2022/10/11 02:41:39;;;;;;;12.95;5.95;;;13.70;99.90;;;;;;5073668;28;20493;-80
2022/10/11 02:44:34;;;;;;;10.38;5.30;;;13.70;99.90;;;;;;5074371;28;20443;-81
2022/10/11 02:47:00;;;;;;;19.80;5.75;;;13.60;99.90;;;;;;5050800;28;20068;-82
2022/10/11 02:49:28;;;;;;;10.48;4.90;;;13.60;99.90;;;;;;5055840;28;20028;-81
2022/10/11 02:51:55;;;;;;;9.30;5.60;;;13.70;99.90;;;;;;5073874;28;20113;-81
2022/10/11 02:54:23;;;;;;;13.45;5.28;;;13.60;99.90;;;;;;5073907;28;20512;-81
2022/10/11 02:56:48;;;;;;;8.35;4.97;;;13.60;99.90;;;;;;5074747;28;20045;-79
2022/10/11 02:59:14;;;;;;;6.93;4.55;;;13.60;99.90;;;;;;5093197;28;20051;-81
2022/10/11 03:01:40;;;;;;;10.63;5.97;;;13.60;99.90;;;;;;5093922;28;20031;-82
2022/10/11 03:04:05;;;;;;;10.57;4.97;;;13.60;99.90;;;;;;5094230;28;20032;-82
2022/10/11 03:06:31;;;;;;;10.55;5.63;;;13.60;99.90;;;;;;5093891;28;20503;-82
2022/10/11 03:08:57;;;;;;;11.77;5.70;;;13.60;99.90;;;;;;5093733;28;20380;-82
2022/10/11 03:11:22;;;;;;;9.68;5.57;;;13.60;99.90;;;;;;5093921;28;20024;-82
2022/10/11 03:13:48;;;;;;;8.20;5.28;;;13.60;99.90;;;;;;5093370;28;20103;-82
2022/10/11 03:16:13;;;;;;;10.77;5.47;;;13.60;99.90;;;;;;5093869;28;20028;-81
2022/10/11 03:18:39;;;;;;;10.68;5.30;;;13.60;99.90;;;;;;5074601;28;20123;-80
2022/10/11 03:21:05;;;;;;;7.60;5.03;;;13.60;99.90;;;;;;5093735;28;20342;-81
2022/10/11 03:23:30;;;;;;;7.70;4.95;;;13.60;99.90;;;;;;5093130;28;20059;-80
2022/10/11 03:25:56;;;;;;;8.95;5.57;;;13.60;99.90;;;;;;5093794;28;20024;-81
2022/10/11 03:28:22;;;;;;;13.10;5.22;;;13.60;99.90;;;;;;5093586;28;20453;-82
2022/10/11 03:30:48;;;;;;;13.00;5.68;;;13.60;99.90;;;;;;5092981;28;20031;-80
2022/10/11 03:33:14;;;;;;;8.00;5.00;;;13.50;99.90;;;;;;5093622;28;20103;-81
2022/10/11 03:35:42;;;;;;;8.90;5.03;;;13.60;99.90;;;;;;5093252;28;20052;-82
2022/10/11 03:38:11;;;;;;;8.20;5.30;;;13.60;99.90;;;;;;5093800;28;20028;-81
2022/10/11 03:40:36;;;;;;;7.50;5.05;;;13.60;99.90;;;;;;5092846;28;20020;-81
2022/10/11 03:43:02;;;;;;;10.43;5.68;;;13.60;99.90;;;;;;5093468;28;20356;-81
2022/10/11 03:45:27;;;;;;;9.27;5.45;;;13.60;99.90;;;;;;5093808;28;20043;-81
2022/10/11 03:47:53;;;;;;;9.07;5.60;;;13.60;99.90;;;;;;5093447;28;20031;-81
2022/10/11 03:50:19;;;;;;;9.60;5.88;;;13.70;99.90;;;;;;5093761;28;20076;-82
2022/10/11 03:52:44;;;;;;;8.88;5.65;;;13.70;99.90;;;;;;5093021;28;20105;-83
2022/10/11 03:55:10;;;;;;;7.75;5.63;;;13.70;99.90;;;;;;5093083;28;20063;-80
2022/10/11 03:57:35;;;;;;;11.93;6.13;;;13.80;99.90;;;;;;5092585;28;20028;-81
2022/10/11 04:00:01;;;;;;;9.40;6.22;;;13.80;99.90;;;;;;5093055;28;20028;-81
2022/10/11 04:02:27;;;;;;;8.98;5.90;;;13.70;99.90;;;;;;5092579;28;20031;-80
2022/10/11 04:04:52;;;;;;;10.82;6.13;;;13.80;99.90;;;;;;5092438;28;20034;-80
2022/10/11 04:07:18;;;;;;;11.00;6.10;;;13.80;99.90;;;;;;5093135;28;20031;-81
2022/10/11 04:09:44;;;;;;;10.40;5.82;;;13.80;99.90;;;;;;5092542;28;20108;-81
2022/10/11 04:12:09;;;;;;;10.63;5.30;;;13.80;99.90;;;;;;5092743;28;20038;-81
2022/10/11 04:14:35;;;;;;;8.55;5.95;;;13.80;99.90;;;;;;5092398;28;20024;-80
2022/10/11 04:17:00;;;;;;;17.35;9.63;;;13.80;99.90;;;;;;5092888;28;20103;-81
2022/10/11 04:19:26;;;;;;;16.17;10.43;;;13.80;99.90;;;;;;5093342;28;20108;-81
2022/10/11 04:21:52;;;;;;;10.70;6.60;;;13.80;99.90;;;;;;5092294;28;20032;-81
2022/10/11 04:24:18;;;;;;;16.40;7.53;;;13.90;99.90;;;;;;5093000;28;20047;-81
2022/10/11 04:26:43;;;;;;;9.43;6.55;;;13.90;99.90;;;;;;5092310;28;20391;-82
2022/10/11 04:29:09;;;;;;;10.27;6.60;;;13.90;99.90;;;;;;5092764;28;20020;-81
2022/10/11 04:31:34;;;;;;;9.63;6.18;;;13.90;99.90;;;;;;5092501;28;20526;-79
2022/10/11 04:34:00;;;;;;;9.70;5.78;;;13.90;99.90;;;;;;5084765;28;20036;-81
2022/10/11 04:36:26;;;;;;;10.77;5.85;;;13.90;99.90;;;;;;5072583;28;20040;-80
2022/10/11 04:38:54;;;;;;;11.23;5.95;;;13.90;99.90;;;;;;5072299;28;20031;-81
2022/10/11 04:41:20;;;;;;;8.90;6.10;;;13.90;99.90;;;;;;5072490;28;20106;-80
2022/10/11 04:43:46;;;;;;;7.43;4.97;;;13.90;99.90;;;;;;5065340;28;20063;-80
2022/10/11 04:46:12;;;;;;;15.65;6.00;;;13.90;99.90;;;;;;5071320;28;20034;-83
2022/10/11 04:48:37;;;;;;;14.13;6.10;;;13.90;99.90;;;;;;5072266;28;20117;-79
2022/10/11 04:51:03;;;;;;;9.27;5.82;;;13.90;99.90;;;;;;5072861;28;20529;-80
2022/10/11 04:53:29;;;;;;;14.35;6.43;;;13.90;99.90;;;;;;5072429;28;20056;-80
2022/10/11 04:56:06;;;;;;;10.55;6.28;;;13.90;99.90;;;;;;5053827;28;20106;-77
2022/10/11 04:58:33;;;;;;;11.95;6.53;;;13.90;99.90;;;;;;5072303;28;20115;-74
2022/10/11 05:00:59;;;;;;;11.90;6.20;;;13.90;99.90;;;;;;5070881;28;20460;-76
2022/10/11 05:03:25;;;;;;;10.38;6.05;;;13.90;99.90;;;;;;5072624;28;20032;-78
2022/10/11 05:05:51;;;;;;;12.88;6.50;;;13.80;99.90;;;;;;5071893;28;20029;-78
2022/10/11 05:08:18;;;;;;;11.02;5.50;;;13.80;99.90;;;;;;5072212;28;20036;-77
2022/10/11 05:10:57;;;;;;;11.30;6.45;;;13.80;99.90;;;;;;5071802;28;20024;-78
2022/10/11 05:13:24;;;;;;;12.75;6.22;;;13.80;99.90;;;;;;5072552;28;20047;-78
2022/10/11 05:15:49;;;;;;;10.23;6.00;;;13.70;99.90;;;;;;5071736;28;20029;-77
2022/10/11 05:18:15;;;;;;;10.18;5.82;;;13.70;99.90;;;;;;5072281;28;20055;-78
2022/10/11 05:20:41;;;;;;;9.63;5.97;;;13.70;99.90;;;;;;5069917;28;20055;-78
2022/10/11 05:23:07;;;;;;;13.30;5.88;;;13.70;99.90;;;;;;5071929;28;20032;-77
2022/10/11 05:25:33;;;;;;;11.40;7.20;;;13.60;99.90;;;;;;5071797;28;20056;-77
2022/10/11 05:27:59;;;;;;;13.00;6.43;;;13.60;99.90;;;;;;5071419;28;20460;-76
2022/10/11 05:30:24;;;;;;;14.60;6.35;;;13.50;99.90;;;;;;5072177;28;20029;-77
2022/10/11 05:32:50;;;;;;;10.48;6.88;;;13.50;99.90;;;;;;5071811;28;20385;-77
2022/10/11 05:35:15;;;;;;;11.13;6.88;;;13.50;99.90;;;;;;5072107;28;20050;-77
2022/10/11 05:37:41;;;;;;;10.55;6.28;;;13.40;99.90;;;;;;5071703;28;20178;-77
2022/10/11 05:40:07;;;;;;;13.57;6.55;;;13.40;99.90;;;;;;5072108;28;20024;-77
2022/10/11 05:42:33;;;;;;;13.65;6.55;;;13.50;99.90;;;;;;5074096;28;20483;-78
2022/10/11 05:44:59;;;;;;;10.55;7.38;;;13.50;99.90;;;;;;5075506;28;20021;-77
2022/10/11 05:47:24;;;;;;;14.82;8.10;;;13.40;99.90;;;;;;5075393;28;20025;-77
2022/10/11 05:49:50;;;;;;;14.68;8.80;;;13.40;99.90;;;;;;5075099;28;20029;-77
2022/10/11 05:52:19;;;;;;;16.15;8.02;;;13.40;99.90;;;;;;5075188;28;20075;-77
2022/10/11 05:54:45;;;;;;;14.45;8.25;;;13.40;99.90;;;;;;5074963;28;20082;-77
2022/10/11 05:57:10;;;;;;;12.85;7.55;;;13.40;99.90;;;;;;5074972;28;20048;-77
2022/10/11 05:59:36;;;;;;;15.52;8.32;;;13.40;99.90;;;;;;5075408;28;20025;-77
2022/10/11 06:02:02;;;;;;;15.48;7.65;;;13.40;99.90;;;;;;5074865;28;20040;-76
2022/10/11 06:04:27;;;;;;;17.67;7.93;;;13.50;99.90;;;;;;5075201;28;20035;-77
2022/10/11 06:06:53;;;;;;;13.13;8.65;;;13.50;99.90;;;;;;5074724;28;20028;-77
2022/10/11 06:09:19;;;;;;;19.25;8.65;;;13.50;99.90;;;;;;5075221;28;20025;-77
2022/10/11 06:11:45;;;;;;;13.32;7.93;;;13.50;99.90;;;;;;5074957;28;20036;-77
2022/10/11 06:14:10;;;;;;;14.43;8.82;;;13.50;99.90;;;;;;5075279;28;20016;-76
2022/10/11 06:16:36;;;;;;;15.95;9.48;;;13.50;99.90;;;;;;5074981;28;20453;-77
2022/10/11 06:19:03;;;;;;;16.73;9.02;;;13.60;99.90;;;;;;5074604;28;20037;-78
2022/10/11 06:21:29;;;;;;;12.32;7.63;;;13.60;99.90;;;;;;5074856;28;20028;-78
2022/10/11 06:23:56;;;;;;;15.40;7.95;;;13.70;99.90;;;;;;5074412;28;20411;-78
2022/10/11 06:26:21;;;;;;;13.95;8.32;;;13.70;99.90;;;;;;5074826;28;20032;-78
2022/10/11 06:28:47;;;;;;;14.18;8.20;;;13.70;99.90;;;;;;5074399;28;20035;-77
2022/10/11 06:31:13;;;;;;;13.27;7.22;;;13.80;99.90;;;;;;5074747;28;20480;-77
2022/10/11 06:33:54;;;;;;;14.65;7.70;;;13.80;99.90;;;;;;5069396;28;20065;-77
2022/10/11 06:36:19;;;;;;;12.50;6.93;;;13.80;99.90;;;;;;5074374;28;20372;-77
2022/10/11 06:38:45;;;;;;;14.75;8.93;;;13.90;99.90;;;;;;5074201;28;20074;-78
2022/10/11 06:41:23;;;;;;;16.85;8.40;;;14.10;99.90;;;;;;5074875;28;20082;-78
2022/10/11 06:43:49;;;;;;;13.75;7.43;;;14.20;99.90;;;;;;5074487;28;20056;-78
2022/10/11 06:46:16;;;;;;;11.43;7.88;;;14.20;99.90;;;;;;5074187;28;20350;-76
2022/10/11 06:48:43;;;;;;;13.80;7.10;;;14.20;99.90;;;;;;5073981;28;20035;-79
2022/10/11 06:51:10;;;;;;;12.68;7.38;;;14.20;99.90;;;;;;5074427;28;20046;-78
2022/10/11 06:53:36;;;;;;;16.23;7.25;;;14.30;99.90;;;;;;5074260;28;20025;-78
2022/10/11 06:56:03;;;;;;;16.02;7.70;;;14.20;99.90;;;;;;5073716;28;20062;-76
2022/10/11 06:58:29;;;;;;;13.20;6.55;;;14.30;99.90;;;;;;5074089;28;20028;-76
2022/10/11 07:00:59;;;;;;;11.02;7.13;;;14.30;99.90;;;;;;5073785;28;20025;-76
2022/10/11 07:03:24;;;;;;;13.90;7.10;;;14.30;99.90;;;;;;5074159;28;20029;-78
2022/10/11 07:05:50;;;;;;;14.50;7.70;;;14.40;99.90;;;;;;5073642;28;20074;-77
2022/10/11 07:08:16;;;;;;;13.20;7.35;;;14.40;99.90;;;;;;5079243;28;20337;-77
2022/10/11 07:10:42;;;;;;;14.18;7.75;;;14.50;99.90;;;;;;5094156;28;20042;-77
2022/10/11 07:13:08;;;;;;;13.57;7.22;;;14.50;99.90;;;;;;5093676;28;20031;-76
2022/10/11 07:15:37;;;;;;;13.25;7.15;;;14.50;99.90;;;;;;5094118;28;20032;-77
2022/10/11 07:18:03;;;;;;;14.95;8.02;;;14.60;99.90;;;;;;5093577;28;20024;-78
2022/10/11 07:20:28;;;;;;;17.48;8.00;;;14.70;99.90;;;;;;5094065;28;20130;-78
2022/10/11 07:22:54;;;;;;;16.67;8.45;;;15.00;99.90;;;;;;5093516;28;20042;-80
2022/10/11 07:25:20;;;;;;;12.90;7.38;;;15.20;99.90;;;;;;5093978;28;20036;-78
2022/10/11 07:27:45;;;;;;;11.25;7.57;;;15.40;99.90;;;;;;5093663;28;20024;-77
2022/10/11 07:30:11;;;;;;;16.77;8.63;;;15.70;99.90;;;;;;5093567;28;20024;-77
2022/10/11 07:32:37;;;;;;;14.35;7.88;;;15.90;99.90;;;;;;5093483;28;20384;-78
2022/10/11 07:35:03;;;;;;;13.65;8.32;;;16.20;99.90;;;;;;5093381;28;20032;-77
2022/10/11 07:37:28;;;;;;;12.45;8.25;;;16.40;99.90;;;;;;5093758;28;20038;-77
2022/10/11 07:39:54;;;;;;;16.17;8.60;;;16.70;99.90;;;;;;5093261;28;20032;-77
2022/10/11 07:42:21;;;;;;;13.80;8.73;;;16.90;99.90;;;;;;5093594;28;20036;-78
2022/10/11 07:44:47;;;;;;;14.23;8.45;;;17.10;99.90;;;;;;5093204;28;20024;-75
2022/10/11 07:47:12;;;;;;;13.05;7.68;;;17.40;99.90;;;;;;5093475;28;20020;-77
2022/10/11 07:49:38;;;;;;;17.15;8.07;;;17.60;99.90;;;;;;5093122;28;20081;-78
2022/10/11 07:52:04;;;;;;;12.98;8.15;;;17.80;99.90;;;;;;5092733;28;20472;-75
2022/10/11 07:54:29;;;;;;;17.88;8.50;;;18.00;98.60;;;;;;5093463;28;20035;-76
2022/10/11 07:56:55;;;;;;;14.05;8.10;;;18.10;99.10;;;;;;5093131;28;20169;-76
2022/10/11 07:59:21;;;;;;;12.80;7.70;;;18.40;99.50;;;;;;5093094;28;20035;-76
2022/10/11 08:01:46;;;;;;;11.57;7.55;;;18.60;98.10;;;;;;5093049;28;20453;-77
2022/10/11 08:04:12;;;;;;;14.27;9.18;;;18.80;95.50;;;;;;5092101;28;20055;-77
2022/10/11 08:06:37;;;;;;;16.23;9.18;;;19.00;95.40;;;;;;5093485;28;20052;-77
2022/10/11 08:09:04;;;;;;;13.13;8.43;;;19.20;94.50;;;;;;5092621;28;20027;-77
2022/10/11 08:11:35;;;;;;;14.02;8.30;;;19.30;93.00;;;;;;5093038;28;20366;-77
2022/10/11 08:14:04;;;;;;;12.30;7.18;;;19.40;92.70;;;;;;5092707;28;20028;-77
2022/10/11 08:16:30;;;;;;;13.90;6.95;;;19.50;92.80;;;;;;5092990;28;20032;-77
2022/10/11 08:18:56;;;;;;;8.95;7.15;;;19.70;92.50;;;;;;5092707;28;20049;-77
2022/10/11 08:21:22;;;;;;;13.38;7.97;;;19.80;91.50;;;;;;5093175;28;20115;-76
2022/10/11 08:23:47;;;;;;;15.43;7.88;;;19.80;90.70;;;;;;5093019;28;20465;-77
2022/10/11 08:26:14;;;;;;;10.10;7.22;;;19.90;91.40;;;;;;5092566;28;20400;-76
2022/10/11 08:28:39;;;;;;;13.15;7.18;;;20.00;90.40;;;;;;5092963;28;20066;-76
2022/10/11 08:31:05;;;;;;;15.18;7.50;;;20.30;91.00;;;;;;5092500;28;20411;-78
2022/10/11 08:33:31;;;;;;;16.35;7.72;;;20.30;89.70;;;;;;5092634;28;20537;-75
2022/10/11 08:35:57;;;;;;;11.57;7.32;;;20.50;88.20;;;;;;5092533;28;20024;-75
2022/10/11 08:38:23;;;;;;;13.10;7.05;;;20.60;88.50;;;;;;5092719;28;20028;-78
2022/10/11 08:40:55;;;;;;;12.68;7.85;;;20.70;86.30;;;;;;5074328;28;20031;-77
2022/10/11 08:43:33;;;;;;;14.63;8.15;;;20.70;87.30;;;;;;5072283;28;20556;-77
2022/10/11 08:46:01;;;;;;;11.95;6.70;;;20.80;85.50;;;;;;5071833;28;20483;-77
2022/10/11 08:48:42;;;;;;;13.57;6.82;;;20.90;85.90;;;;;;5072418;28;20025;-77
2022/10/11 08:51:29;;;;;;;7.40;5.07;;;21.00;83.50;;;;;;5071887;28;20028;-77
2022/10/11 08:54:04;;;;;;;15.80;5.15;;;21.10;82.50;;;;;;5071957;28;20107;-76
2022/10/11 08:56:31;;;;;;;10.00;5.00;;;21.10;79.40;;;;;;5072145;28;20048;-75
2022/10/11 08:59:21;;;;;;;10.32;4.82;;;21.10;80.20;;;;;;5071563;28;20036;-75
2022/10/11 09:01:57;;;;;;;6.28;4.35;;;21.30;80.10;;;;;;5057700;28;20041;-76
2022/10/11 09:04:22;;;;;;;9.25;4.75;;;21.50;78.90;;;;;;5072363;28;20362;-76
2022/10/11 09:07:12;;;;;;;7.78;4.75;;;21.50;77.00;;;;;;5072237;28;20034;-78
2022/10/11 09:09:44;;;;;;;9.30;4.38;;;21.60;76.70;;;;;;5072273;28;20055;-78
2022/10/11 09:12:44;;;;;;;8.65;4.78;;;21.70;76.30;;;;;;5071850;28;20033;-77
2022/10/11 09:15:25;;;;;;;11.82;4.40;;;21.80;74.60;;;;;;5002988;28;20044;-77
2022/10/11 09:18:22;;;;;;;7.78;4.57;;;21.80;74.60;;;;;;5091722;28;20032;-77
2022/10/11 09:20:51;;;;;;;11.88;4.97;;;22.00;74.10;;;;;;5006703;28;20042;-77
2022/10/11 09:23:38;;;;;;;8.45;4.78;;;22.00;73.30;;;;;;5095772;28;20035;-77
2022/10/11 09:26:15;;;;;;;8.48;4.95;;;22.10;72.50;;;;;;5095904;28;20061;-76
2022/10/11 09:28:57;;;;;;;7.63;4.68;;;22.20;72.20;;;;;;5096288;28;20028;-77
2022/10/11 09:31:23;;;;;;;6.65;3.85;;;22.20;71.60;;;;;;5095956;28;20020;-75
2022/10/11 09:33:51;;;;;;;8.65;4.43;;;22.30;71.90;;;;;;5095701;28;20366;-76
2022/10/11 09:36:54;;;;;;;6.43;4.70;;;22.40;70.30;;;;;;5095216;28;20535;-77
2022/10/11 09:39:38;;;;;;;10.68;4.68;;;22.30;70.20;;;;;;5043440;28;20028;-77
2022/10/11 09:42:10;;;;;;;7.40;4.55;;;22.40;69.60;;;;;;5095171;28;20024;-75
2022/10/11 09:44:47;;;;;;;9.82;4.88;;;22.40;70.10;;;;;;5096156;28;20028;-75
2022/10/11 09:47:20;;;;;;;9.98;5.05;;;22.50;70.40;;;;;;5095321;28;20020;-76
2022/10/11 09:49:55;;;;;;;12.68;4.93;;;22.60;69.10;;;;;;5095365;28;20423;-75
2022/10/11 09:52:22;;;;;;;5.93;4.25;;;22.60;69.00;;;;;;5095300;28;20027;-75
2022/10/11 09:54:50;;;;;;;8.80;5.13;;;22.70;67.50;;;;;;5095553;28;20028;-76
2022/10/11 09:57:31;;;;;;;7.65;4.75;;;22.60;68.00;;;;;;5095055;28;20393;-75
2022/10/11 10:00:01;;;;;;;14.32;4.90;;;22.80;68.50;;;;;;5095106;28;20066;-77
2022/10/11 10:02:28;;;;;;;9.93;4.97;;;22.90;68.00;;;;;;5094735;28;20496;-77
2022/10/11 10:04:55;;;;;;;9.27;5.63;;;23.00;67.90;;;;;;5095331;28;20028;-77
2022/10/11 10:07:21;;;;;;;8.48;5.07;;;23.00;67.80;;;;;;5094393;28;20110;-77
2022/10/11 10:09:48;;;;;;;9.82;4.68;;;23.10;65.80;;;;;;5094797;28;20388;-77
2022/10/11 10:12:20;;;;;;;6.47;4.40;;;23.10;65.90;;;;;;5094796;28;20024;-75
2022/10/11 10:14:55;;;;;;;9.43;4.63;;;23.10;65.30;;;;;;5095068;28;20150;-76
2022/10/11 10:17:21;;;;;;;5.68;3.92;;;23.10;65.60;;;;;;5094677;28;20431;-76
2022/10/11 10:19:55;;;;;;;9.05;5.20;;;23.30;66.30;;;;;;5095099;28;20024;-76
2022/10/11 10:22:27;;;;;;;11.70;4.63;;;23.30;65.40;;;;;;5094625;28;20024;-76
2022/10/11 10:24:54;;;;;;;8.68;4.80;;;23.30;65.10;;;;;;5095073;28;20036;-76
2022/10/11 10:27:26;;;;;;;8.15;4.72;;;23.40;65.30;;;;;;5093843;28;20468;-76
2022/10/11 10:30:09;;;;;;;7.97;4.82;;;23.40;65.20;;;;;;5095094;28;20055;-75
2022/10/11 10:33:01;;;;;;;9.93;4.32;;;23.50;64.40;;;;;;5094800;28;20028;-77
2022/10/11 10:35:40;;;;;;;8.40;3.75;;;23.50;63.60;;;;;;5094520;28;20020;-76
2022/10/11 10:38:22;;;;;;;7.93;4.28;;;23.50;64.30;;;;;;5094787;28;20036;-77
2022/10/11 10:40:52;;;;;;;7.97;4.10;;;23.60;64.10;;;;;;5086560;28;20419;-77
2022/10/11 10:43:21;;;;;;;6.30;4.05;;;23.60;63.40;;;;;;5074064;28;20411;-77
2022/10/11 10:45:56;;;;;;;9.23;4.53;;;23.60;63.20;;;;;;5074363;28;20024;-77
2022/10/11 10:49:00;;;;;;;8.50;3.95;;;23.60;63.70;;;;;;5055832;28;20404;-77
2022/10/11 10:51:51;;;;;;;6.18;4.00;;;23.70;63.80;;;;;;5026115;28;20041;-76
2022/10/11 10:54:43;;;;;;;6.35;3.95;;;23.80;62.70;;;;;;5073777;28;20059;-76
2022/10/11 10:57:18;;;;;;;7.82;4.43;;;23.90;61.00;;;;;;5073940;28;20485;-77
2022/10/11 11:00:04;;;;;;;8.10;4.00;;;23.90;61.40;;;;;;5073845;28;20070;-75
2022/10/11 11:03:04;;;;;;;13.27;4.43;;;23.80;61.60;;;;;;5073926;28;20056;-76
2022/10/11 11:05:56;;;;;;;7.93;4.72;;;23.90;61.20;;;;;;5047450;28;20048;-75
2022/10/11 11:08:48;;;;;;;10.70;4.90;;;23.80;62.30;;;;;;5073319;28;20074;-75
2022/10/11 11:11:28;;;;;;;8.27;3.75;;;23.80;60.90;;;;;;5037160;28;20040;-77
2022/10/11 11:14:18;;;;;;;7.72;3.60;;;23.80;60.80;;;;;;5073995;28;20016;-74
2022/10/11 11:16:59;;;;;;;8.50;3.40;;;23.90;60.80;;;;;;5073642;28;20064;-77
2022/10/11 11:19:44;;;;;;;3.75;2.80;;;23.90;59.60;;;;;;5073422;28;20035;-77
2022/10/11 11:22:26;;;;;;;11.60;3.22;;;24.10;59.20;;;;;;5072943;28;20090;-76
2022/10/11 11:25:01;;;;;;;8.27;2.85;;;24.00;57.80;;;;;;5073671;28;20035;-77
2022/10/11 11:27:40;;;;;;;8.95;3.35;;;23.80;58.10;;;;;;5088464;28;20024;-76
2022/10/11 11:30:17;;;;;;;4.47;3.00;;;23.80;57.20;;;;;;5093313;28;20031;-76
2022/10/11 11:32:56;;;;;;;7.63;2.90;;;23.70;56.10;;;;;;5093425;28;20027;-76
2022/10/11 11:35:38;;;;;;;8.55;3.33;;;23.60;57.20;;;;;;5093222;28;20455;-76
2022/10/11 11:38:15;;;;;;;6.38;2.78;;;23.50;57.90;;;;;;5092861;28;20582;-75
2022/10/11 11:40:51;;;;;;;5.57;2.97;;;23.60;58.20;;;;;;5092903;28;20043;-76
2022/10/11 11:43:50;;;;;;;6.07;2.80;;;23.60;57.30;;;;;;5092650;28;20529;-76
2022/10/11 11:46:21;;;;;;;9.90;3.03;;;23.60;58.00;;;;;;5092961;28;20020;-75
2022/10/11 11:48:48;;;;;;;6.15;3.17;;;23.60;59.00;;;;;;5093496;28;20387;-77
2022/10/11 11:51:22;;;;;;;5.60;2.75;;;23.60;57.80;;;;;;5092996;28;20027;-75
2022/10/11 11:53:58;;;;;;;4.90;2.88;;;23.40;56.90;;;;;;5093386;28;20422;-76
2022/10/11 11:56:26;;;;;;;7.88;2.65;;;23.30;57.40;;;;;;5092750;28;20040;-75
2022/10/11 11:59:01;;;;;;;8.63;3.55;;;23.40;57.80;;;;;;5093256;28;20479;-76
2022/10/11 12:02:02;;;;;;;8.50;3.53;;;23.30;57.40;;;;;;5092620;28;20090;-75
2022/10/11 12:04:29;;;;;;;7.47;3.20;;;23.20;58.10;;;;;;5092783;28;20111;-76
2022/10/11 12:07:03;;;;;;;5.30;2.95;;;23.40;57.70;;;;;;5093154;28;20038;-76
2022/10/11 12:09:30;;;;;;;12.25;2.63;;;23.40;56.30;;;;;;5092668;28;20024;-76
2022/10/11 12:12:03;;;;;;;4.57;2.70;;;23.40;56.80;;;;;;5092903;28;20051;-76
2022/10/11 12:14:31;;;;;;;7.22;2.60;;;23.40;57.20;;;;;;5092545;28;20357;-75
2022/10/11 12:17:10;;;;;;;6.53;2.60;;;23.40;57.20;;;;;;5092795;28;20379;-75
2022/10/11 12:19:37;;;;;;;6.20;2.47;;;23.40;54.70;;;;;;5092887;28;20081;-75
2022/10/11 12:22:41;;;;;;;3.55;2.05;;;23.40;54.10;;;;;;5074794;28;20024;-75
2022/10/11 12:25:09;;;;;;;5.93;2.45;;;23.30;54.20;;;;;;5092437;28;20039;-74
2022/10/11 12:27:38;;;;;;;3.55;2.42;;;23.30;54.90;;;;;;5092372;28;20028;-75
2022/10/11 12:30:25;;;;;;;5.53;2.53;;;23.20;54.00;;;;;;5092738;28;20139;-75
2022/10/11 12:33:01;;;;;;;5.55;2.75;;;23.10;55.00;;;;;;5074678;28;20097;-77
2022/10/11 12:35:30;;;;;;;5.32;2.70;;;23.00;55.70;;;;;;5092073;28;20514;-77
2022/10/11 12:38:25;;;;;;;10.73;2.38;;;22.80;56.20;;;;;;5092613;28;20032;-77
2022/10/11 12:40:55;;;;;;;4.18;2.40;;;22.60;55.10;;;;;;5070682;28;20032;-77
2022/10/11 12:43:23;;;;;;;5.03;2.78;;;22.50;55.40;;;;;;5092174;28;20024;-76
2022/10/11 12:45:49;;;;;;;5.85;3.20;;;22.30;54.90;;;;;;5092677;28;20028;-76
2022/10/11 12:48:47;;;;;;;5.03;2.63;;;22.20;55.70;;;;;;5083325;28;20031;-76
2022/10/11 12:51:31;;;;;;;3.33;1.92;;;22.00;55.00;;;;;;5073981;28;20393;-76
2022/10/11 12:54:34;;;;;;;9.07;2.45;;;21.80;55.90;;;;;;5076436;28;20086;-76
2022/10/11 12:57:42;;;;;;;7.57;2.95;;;21.70;55.60;;;;;;5033815;28;20114;-75
2022/10/11 13:00:30;;;;;;;8.32;2.58;;;21.60;54.80;;;;;;5056291;28;20369;-76
2022/10/11 13:03:00;;;;;;;5.65;2.40;;;21.50;56.40;;;;;;5056044;28;20060;-75
2022/10/11 13:05:43;;;;;;;5.95;2.88;;;21.50;57.30;;;;;;5055512;28;20034;-75
2022/10/11 13:08:17;;;;;;;6.25;3.22;;;21.40;57.20;;;;;;5056072;28;20079;-75